Time;durP1;ratioP1;P1;durP2;ratioP2;P2;SDS_P1;SDS_P2;PMS_P1;PMS_P2;Temp;Humidity;BMP_temperature;BMP_pressure;BME280_temperature;BME280_humidity;BME280_pressure;Samples;Min_cycle;Max_cycle;Signal;HPM_P1;HPM_P2
2023/03/11 00:00:48;;;;;;;1.63;1.00;;;1.90;99.90;;;;;;5033961;28;20472;-43
2023/03/11 00:03:15;;;;;;;2.63;1.13;;;1.80;99.90;;;;;;5033610;28;20421;-43
2023/03/11 00:05:43;;;;;;;1.60;1.20;;;1.90;99.90;;;;;;5033564;28;20902;-43
2023/03/11 00:08:13;;;;;;;2.20;1.50;;;1.80;99.90;;;;;;5033728;28;20640;-42
2023/03/11 00:10:41;;;;;;;1.80;1.20;;;1.80;99.90;;;;;;5034677;28;20738;-42
2023/03/11 00:13:08;;;;;;;1.80;1.10;;;1.80;99.90;;;;;;5034010;28;21006;-41
2023/03/11 00:15:35;;;;;;;1.73;1.23;;;1.70;99.90;;;;;;5049828;28;20945;-41
2023/03/11 00:18:00;;;;;;;1.57;1.37;;;1.70;99.90;;;;;;5034452;28;20448;-41
2023/03/11 00:20:28;;;;;;;2.40;1.63;;;1.70;1.00;;;;;;5036398;28;20472;-41
2023/03/11 00:22:53;;;;;;;2.40;1.10;;;1.70;1.00;;;;;;5033229;28;20178;-41
2023/03/11 00:25:20;;;;;;;2.03;1.60;;;1.70;1.00;;;;;;5033282;28;20676;-42
2023/03/11 00:27:46;;;;;;;1.60;1.13;;;1.70;1.00;;;;;;5033424;28;20676;-42
2023/03/11 00:30:13;;;;;;;2.17;1.60;;;1.70;1.00;;;;;;5035589;28;20464;-42
2023/03/11 00:32:39;;;;;;;2.30;1.63;;;1.70;50.40;;;;;;5035622;28;20189;-42
2023/03/11 00:35:06;;;;;;;1.73;1.47;;;1.70;99.90;;;;;;5035802;28;20696;-42
2023/03/11 00:37:32;;;;;;;1.93;1.60;;;1.70;99.90;;;;;;5035084;28;20548;-44
2023/03/11 00:39:58;;;;;;;2.10;1.70;;;1.70;99.90;;;;;;5035508;28;20413;-42
2023/03/11 00:42:24;;;;;;;2.43;1.80;;;1.70;99.90;;;;;;5036493;28;20251;-43
2023/03/11 00:44:49;;;;;;;3.80;2.67;;;1.70;99.90;;;;;;5036111;28;20412;-41
2023/03/11 00:47:15;;;;;;;1.93;1.50;;;1.70;1.00;;;;;;5035326;28;20216;-44
2023/03/11 00:49:41;;;;;;;3.80;1.87;;;1.70;1.00;;;;;;5035639;28;20167;-44
2023/03/11 00:52:07;;;;;;;2.10;1.90;;;1.80;1.00;;;;;;5035552;28;20182;-43
2023/03/11 00:54:33;;;;;;;1.87;1.43;;;1.80;1.00;;;;;;5036501;28;20483;-41
2023/03/11 00:56:58;;;;;;;2.57;1.87;;;1.80;1.00;;;;;;5035842;28;20549;-41
2023/03/11 00:59:24;;;;;;;2.30;1.37;;;1.90;1.00;;;;;;5036022;28;20196;-43
2023/03/11 01:01:50;;;;;;;1.77;1.60;;;1.80;1.00;;;;;;5036737;28;20186;-43
2023/03/11 01:04:18;;;;;;;2.77;1.90;;;1.90;1.00;;;;;;5037116;28;20178;-43
2023/03/11 01:06:44;;;;;;;2.30;1.77;;;1.80;1.00;;;;;;5035380;28;20560;-41
2023/03/11 01:09:09;;;;;;;2.43;2.23;;;1.80;99.90;;;;;;5034591;28;20556;-43
2023/03/11 01:11:35;;;;;;;2.23;1.70;;;1.80;99.90;;;;;;5033793;28;20179;-41
2023/03/11 01:14:01;;;;;;;2.73;1.93;;;1.80;99.90;;;;;;5035121;28;20181;-44
2023/03/11 01:16:27;;;;;;;1.90;1.50;;;1.90;99.90;;;;;;5035102;28;20201;-43
2023/03/11 01:18:52;;;;;;;2.60;2.10;;;1.80;99.90;;;;;;5035074;28;20961;-42
2023/03/11 01:21:18;;;;;;;3.33;1.80;;;1.90;1.00;;;;;;5035096;28;20183;-42
2023/03/11 01:23:43;;;;;;;2.40;1.93;;;1.90;99.90;;;;;;5035940;28;20185;-44
2023/03/11 01:26:09;;;;;;;4.47;1.83;;;1.90;99.90;;;;;;5032345;28;20544;-42
2023/03/11 01:28:35;;;;;;;3.90;2.13;;;1.90;21.60;;;;;;5034607;28;20240;-42
2023/03/11 01:31:00;;;;;;;2.90;2.10;;;1.80;97.70;;;;;;5033419;28;20237;-41
2023/03/11 01:33:26;;;;;;;4.90;2.40;;;1.90;99.90;;;;;;5033990;28;20170;-41
2023/03/11 01:35:51;;;;;;;5.50;2.50;;;1.90;99.90;;;;;;5034275;28;20182;-43
2023/03/11 01:38:17;;;;;;;2.67;1.90;;;1.90;99.90;;;;;;5034418;28;20184;-42
2023/03/11 01:40:50;;;;;;;4.10;1.80;;;1.80;1.00;;;;;;5032522;28;20170;-42
2023/03/11 01:43:56;;;;;;;2.50;1.83;;;1.90;1.00;;;;;;5032593;28;20637;-43
2023/03/11 01:47:07;;;;;;;2.20;1.90;;;1.90;1.00;;;;;;5031606;28;20538;-42
2023/03/11 01:49:33;;;;;;;2.00;1.50;;;1.80;99.90;;;;;;5005501;28;20691;-42
2023/03/11 01:52:02;;;;;;;3.60;1.97;;;1.80;1.00;;;;;;5028210;28;20524;-41
2023/03/11 01:54:33;;;;;;;2.83;1.60;;;1.80;99.90;;;;;;5029631;28;20383;-41
2023/03/11 01:57:01;;;;;;;1.63;1.50;;;1.90;99.90;;;;;;5031055;28;20496;-42
2023/03/11 01:59:30;;;;;;;5.00;2.03;;;1.80;1.00;;;;;;5029744;28;20716;-42
2023/03/11 02:02:05;;;;;;;3.27;2.03;;;1.80;1.00;;;;;;5031952;28;20433;-42
2023/03/11 02:04:33;;;;;;;3.20;1.77;;;1.80;50.70;;;;;;5033703;28;20409;-42
2023/03/11 02:06:59;;;;;;;3.30;1.70;;;1.70;99.90;;;;;;5035840;28;20477;-41
2023/03/11 02:09:25;;;;;;;3.70;1.60;;;1.70;99.90;;;;;;5036159;28;20850;-41
2023/03/11 02:11:51;;;;;;;3.03;1.70;;;1.70;1.00;;;;;;5036379;28;20496;-42
2023/03/11 02:14:17;;;;;;;2.07;1.87;;;1.70;99.90;;;;;;5036369;28;20414;-43
2023/03/11 02:16:43;;;;;;;3.07;2.03;;;1.70;99.90;;;;;;5034503;28;20437;-41
2023/03/11 02:19:33;;;;;;;3.13;1.93;;;1.70;99.90;;;;;;5034334;28;20182;-44
2023/03/11 02:21:59;;;;;;;2.47;1.70;;;1.70;1.00;;;;;;5035347;28;20204;-41
2023/03/11 02:24:34;;;;;;;3.13;2.27;;;1.70;1.00;;;;;;5034804;28;20459;-42
2023/03/11 02:27:11;;;;;;;2.80;1.70;;;1.60;1.00;;;;;;5033284;28;20789;-42
2023/03/11 02:29:37;;;;;;;2.57;2.00;;;1.60;1.00;;;;;;5033898;28;20416;-43
2023/03/11 02:32:08;;;;;;;2.13;1.60;;;1.50;99.90;;;;;;5035860;28;20744;-41
2023/03/11 02:34:36;;;;;;;2.23;1.50;;;1.50;99.90;;;;;;5035889;28;20421;-42
2023/03/11 02:37:07;;;;;;;3.53;1.73;;;1.40;99.90;;;;;;5035487;28;20459;-41
2023/03/11 02:39:39;;;;;;;1.50;1.37;;;1.30;99.90;;;;;;5033410;28;20432;-45
2023/03/11 02:42:07;;;;;;;2.90;1.37;;;1.20;99.90;;;;;;5034465;28;20472;-42
2023/03/11 02:44:33;;;;;;;4.77;1.50;;;1.10;96.70;;;;;;5034737;28;20468;-42
2023/03/11 02:46:59;;;;;;;3.10;1.80;;;1.10;99.90;;;;;;5037474;28;20468;-42
2023/03/11 02:49:25;;;;;;;2.20;1.40;;;1.10;99.90;;;;;;5038099;28;20786;-42
2023/03/11 02:51:51;;;;;;;3.10;1.90;;;1.00;99.90;;;;;;5037817;28;20515;-42
2023/03/11 02:54:17;;;;;;;2.40;1.80;;;0.90;99.90;;;;;;5039327;28;20186;-42
2023/03/11 02:56:43;;;;;;;2.07;1.60;;;0.80;99.90;;;;;;5040235;28;20174;-42
2023/03/11 02:59:08;;;;;;;1.90;1.30;;;0.80;1.00;;;;;;5040558;28;20424;-43
2023/03/11 03:01:34;;;;;;;3.67;1.80;;;0.90;1.00;;;;;;5039783;28;20183;-43
2023/03/11 03:04:00;;;;;;;5.33;1.60;;;0.90;99.90;;;;;;5040122;28;20202;-42
2023/03/11 03:06:27;;;;;;;6.90;1.80;;;0.90;99.90;;;;;;5040470;28;20210;-42
2023/03/11 03:08:53;;;;;;;1.80;1.47;;;0.80;53.30;;;;;;5038619;28;20535;-43
2023/03/11 03:11:19;;;;;;;5.37;1.40;;;0.80;4.80;;;;;;5038347;28;20532;-42
2023/03/11 03:13:44;;;;;;;2.70;1.53;;;0.80;27.70;;;;;;5036804;28;20798;-42
2023/03/11 03:16:10;;;;;;;3.83;1.50;;;0.80;1.00;;;;;;5038338;28;20182;-42
2023/03/11 03:18:36;;;;;;;4.70;1.60;;;0.80;1.00;;;;;;5037728;28;20527;-43
2023/03/11 03:21:02;;;;;;;2.40;1.50;;;0.80;1.00;;;;;;5037604;28;20529;-43
2023/03/11 03:23:27;;;;;;;4.63;2.10;;;0.70;21.20;;;;;;5038194;28;20658;-41
2023/03/11 03:25:53;;;;;;;3.40;1.30;;;0.60;92.60;;;;;;5038377;28;20596;-43
2023/03/11 03:28:19;;;;;;;2.53;1.70;;;0.50;99.90;;;;;;5037647;28;20631;-42
2023/03/11 03:30:44;;;;;;;1.90;1.67;;;0.50;99.90;;;;;;5037547;28;20716;-42
2023/03/11 03:33:10;;;;;;;3.00;1.87;;;0.50;1.00;;;;;;5038475;28;20420;-40
2023/03/11 03:35:40;;;;;;;4.60;1.47;;;0.50;1.00;;;;;;5037893;28;20243;-41
2023/03/11 03:38:06;;;;;;;3.40;1.87;;;0.40;99.90;;;;;;5038208;28;20187;-42
2023/03/11 03:40:32;;;;;;;2.27;1.50;;;0.40;99.90;;;;;;5037822;28;20433;-41
2023/03/11 03:42:58;;;;;;;2.90;2.20;;;0.40;99.90;;;;;;5039330;28;20186;-42
2023/03/11 03:45:23;;;;;;;2.50;1.53;;;0.50;99.90;;;;;;5038220;28;20429;-42
2023/03/11 03:47:49;;;;;;;4.13;1.37;;;0.40;99.90;;;;;;5039622;28;20171;-42
2023/03/11 03:50:15;;;;;;;2.50;1.47;;;0.40;99.90;;;;;;5039434;28;20175;-41
2023/03/11 03:52:40;;;;;;;2.00;1.40;;;0.30;99.90;;;;;;5037870;28;20170;-42
2023/03/11 03:55:06;;;;;;;2.60;1.73;;;0.30;1.00;;;;;;5039296;28;20179;-43
2023/03/11 03:57:32;;;;;;;2.37;1.90;;;0.30;1.00;;;;;;5037970;28;20591;-40
2023/03/11 03:59:58;;;;;;;2.27;1.57;;;0.30;1.00;;;;;;5039008;28;20807;-39
2023/03/11 04:02:23;;;;;;;3.27;1.33;;;0.30;1.00;;;;;;5037866;28;20194;-40
2023/03/11 04:04:49;;;;;;;2.80;1.50;;;0.30;1.00;;;;;;5036824;28;20510;-42
2023/03/11 04:07:15;;;;;;;4.33;1.60;;;0.30;1.00;;;;;;5037709;28;20253;-39
2023/03/11 04:09:42;;;;;;;4.33;1.50;;;0.30;1.00;;;;;;5038307;28;20448;-40
2023/03/11 04:12:13;;;;;;;2.30;1.30;;;0.20;1.00;;;;;;5037488;28;20178;-40
2023/03/11 04:14:39;;;;;;;4.37;1.90;;;0.10;1.00;;;;;;5036152;28;20406;-40
2023/03/11 04:17:05;;;;;;;3.43;2.03;;;0.10;1.00;;;;;;5036940;28;20613;-41
2023/03/11 04:19:31;;;;;;;3.60;1.70;;;0.10;44.70;;;;;;5037603;28;20420;-43
2023/03/11 04:21:57;;;;;;;2.57;1.87;;;0.10;1.00;;;;;;5037518;28;20473;-40
2023/03/11 04:24:22;;;;;;;4.40;1.50;;;0.00;29.10;;;;;;5036628;28;20432;-41
2023/03/11 04:26:48;;;;;;;4.30;2.07;;;0.10;41.00;;;;;;5036236;28;20214;-41
2023/03/11 04:29:14;;;;;;;3.00;1.60;;;0.10;99.90;;;;;;5035475;28;20178;-41
2023/03/11 04:31:40;;;;;;;2.60;1.83;;;0.00;99.90;;;;;;5036171;28;20244;-41
2023/03/11 04:34:05;;;;;;;2.97;1.90;;;0.00;99.90;;;;;;5035691;28;20182;-40
2023/03/11 04:36:31;;;;;;;4.23;2.10;;;0.10;99.90;;;;;;5037518;28;20213;-43
2023/03/11 04:38:57;;;;;;;4.53;1.70;;;0.10;99.90;;;;;;5037470;28;20493;-41
2023/03/11 04:41:23;;;;;;;3.80;2.00;;;0.00;99.90;;;;;;5037789;28;20558;-41
2023/03/11 04:43:48;;;;;;;3.00;1.77;;;0.00;99.90;;;;;;5037932;28;20325;-41
2023/03/11 04:46:14;;;;;;;5.60;2.27;;;-0.10;99.90;;;;;;5037489;28;20512;-42
2023/03/11 04:48:40;;;;;;;3.80;1.73;;;-0.10;1.00;;;;;;5037368;28;20182;-40
2023/03/11 04:51:06;;;;;;;3.40;2.27;;;-0.10;1.00;;;;;;5037364;28;20627;-41
2023/03/11 04:53:31;;;;;;;3.07;2.53;;;-0.10;1.00;;;;;;5037615;28;20561;-41
2023/03/11 04:55:57;;;;;;;3.20;2.17;;;-0.10;1.00;;;;;;5036830;28;20544;-40
2023/03/11 04:58:23;;;;;;;3.77;2.10;;;-0.10;15.90;;;;;;5037169;28;20185;-41
2023/03/11 05:00:48;;;;;;;5.53;3.10;;;-0.10;1.00;;;;;;5037382;28;20189;-41
2023/03/11 05:03:14;;;;;;;5.73;2.60;;;-0.10;1.00;;;;;;5037053;28;20208;-42
2023/03/11 05:05:40;;;;;;;6.00;2.50;;;-0.20;99.90;;;;;;5038300;28;20217;-43
2023/03/11 05:08:05;;;;;;;5.10;2.80;;;-0.20;99.90;;;;;;5038134;28;20237;-41
2023/03/11 05:10:31;;;;;;;4.40;2.60;;;-0.30;99.90;;;;;;5037553;28;20496;-41
2023/03/11 05:12:57;;;;;;;3.50;2.40;;;-0.30;1.00;;;;;;5035872;28;20265;-41
2023/03/11 05:15:23;;;;;;;4.60;2.10;;;-0.40;1.00;;;;;;5035631;28;20413;-43
2023/03/11 05:17:48;;;;;;;2.50;1.60;;;-0.40;1.00;;;;;;5034754;28;20232;-40
2023/03/11 05:20:14;;;;;;;2.50;2.27;;;-0.40;99.90;;;;;;5035285;28;20182;-41
2023/03/11 05:22:40;;;;;;;3.50;2.00;;;-0.40;99.90;;;;;;5034961;28;20193;-41
2023/03/11 05:25:06;;;;;;;5.10;2.97;;;-0.40;36.40;;;;;;5034261;28;20549;-40
2023/03/11 05:27:32;;;;;;;2.87;2.10;;;-0.40;99.90;;;;;;5034737;28;20219;-40
2023/03/11 05:29:57;;;;;;;4.23;2.27;;;-0.40;99.90;;;;;;5037025;28;20465;-41
2023/03/11 05:32:23;;;;;;;5.00;2.00;;;-0.40;99.90;;;;;;5037192;28;20440;-41
2023/03/11 05:34:49;;;;;;;7.63;2.30;;;-0.40;99.90;;;;;;5037079;28;20179;-40
2023/03/11 05:37:15;;;;;;;4.80;1.93;;;-0.30;99.90;;;;;;5036964;28;20527;-43
2023/03/11 05:39:40;;;;;;;3.80;2.03;;;-0.40;59.50;;;;;;5036280;28;20240;-40
2023/03/11 05:42:07;;;;;;;4.17;2.00;;;-0.40;99.90;;;;;;5035691;28;20206;-39
2023/03/11 05:44:33;;;;;;;3.93;2.27;;;-0.50;99.90;;;;;;5035813;28;20232;-42
2023/03/11 05:46:59;;;;;;;5.23;2.17;;;-0.50;99.90;;;;;;5035260;28;20484;-40
2023/03/11 05:49:24;;;;;;;5.13;2.33;;;-0.50;99.90;;;;;;5034918;28;20405;-42
2023/03/11 05:51:52;;;;;;;3.20;1.97;;;-0.50;1.00;;;;;;5035365;28;20433;-42
2023/03/11 05:54:17;;;;;;;6.27;2.20;;;-0.50;99.90;;;;;;5034236;28;20309;-41
2023/03/11 05:56:44;;;;;;;4.27;1.57;;;-0.40;99.90;;;;;;5034919;28;20531;-40
2023/03/11 05:59:11;;;;;;;5.03;1.90;;;-0.40;99.90;;;;;;5034761;28;20178;-41
2023/03/11 06:01:37;;;;;;;3.80;2.57;;;-0.40;99.90;;;;;;5035097;28;20523;-40
2023/03/11 06:04:03;;;;;;;5.80;1.60;;;-0.30;99.90;;;;;;5034938;28;20846;-42
2023/03/11 06:06:29;;;;;;;5.87;2.20;;;-0.30;99.90;;;;;;5034685;28;20489;-40
2023/03/11 06:08:55;;;;;;;6.70;1.60;;;-0.30;14.70;;;;;;5033489;28;20417;-40
2023/03/11 06:11:24;;;;;;;5.53;1.80;;;-0.40;36.00;;;;;;5033473;28;20794;-41
2023/03/11 06:13:53;;;;;;;3.63;2.00;;;-0.40;99.90;;;;;;5032493;28;20413;-41
2023/03/11 06:16:19;;;;;;;3.23;2.00;;;-0.30;99.20;;;;;;5034486;28;20515;-41
2023/03/11 06:18:44;;;;;;;3.87;1.90;;;-0.20;99.90;;;;;;5033202;28;20930;-41
2023/03/11 06:21:21;;;;;;;2.53;1.70;;;-0.10;1.00;;;;;;5037848;28;20432;-43
2023/03/11 06:23:47;;;;;;;5.60;2.50;;;-0.10;1.00;;;;;;5040750;28;20174;-41
2023/03/11 06:26:15;;;;;;;2.90;1.80;;;0.00;99.90;;;;;;5040318;28;20480;-42
2023/03/11 06:28:44;;;;;;;3.00;2.00;;;0.00;99.90;;;;;;5038672;28;20409;-41
2023/03/11 06:31:28;;;;;;;3.37;1.90;;;0.00;99.90;;;;;;5039792;28;20473;-40
2023/03/11 06:33:58;;;;;;;4.50;2.57;;;0.10;99.90;;;;;;5040208;28;20409;-41
2023/03/11 06:36:24;;;;;;;5.27;2.17;;;0.20;52.50;;;;;;5039835;28;20827;-42
2023/03/11 06:38:53;;;;;;;5.77;2.10;;;0.30;99.90;;;;;;5039946;28;20499;-43
2023/03/11 06:41:19;;;;;;;2.93;2.30;;;0.50;99.90;;;;;;5039151;28;20463;-41
2023/03/11 06:43:45;;;;;;;5.40;2.47;;;0.60;1.00;;;;;;5021056;28;20417;-42
2023/03/11 06:46:15;;;;;;;7.37;2.93;;;0.80;99.90;;;;;;5039216;28;20802;-40
2023/03/11 06:48:41;;;;;;;8.53;3.90;;;0.90;99.90;;;;;;5040874;28;20178;-40
2023/03/11 06:51:08;;;;;;;8.53;2.53;;;1.00;99.90;;;;;;5039021;28;20727;-41
2023/03/11 06:53:34;;;;;;;4.83;2.90;;;1.30;1.00;;;;;;5039301;28;20563;-42
2023/03/11 06:56:11;;;;;;;3.37;2.10;;;1.50;99.90;;;;;;5039166;28;20523;-41
2023/03/11 06:58:38;;;;;;;6.00;3.00;;;1.60;99.90;;;;;;5038232;28;20178;-41
2023/03/11 07:01:09;;;;;;;3.90;1.80;;;1.60;1.00;;;;;;5037830;28;20424;-40
2023/03/11 07:03:35;;;;;;;4.73;1.43;;;1.50;1.00;;;;;;5036610;28;20479;-40
2023/03/11 07:06:01;;;;;;;2.40;1.40;;;1.30;1.00;;;;;;5038634;28;20874;-40
2023/03/11 07:08:27;;;;;;;5.83;2.50;;;1.40;1.00;;;;;;5037378;28;20178;-43
2023/03/11 07:11:22;;;;;;;3.97;2.00;;;1.60;1.00;;;;;;5037523;28;20217;-41
2023/03/11 07:13:48;;;;;;;2.50;2.30;;;1.90;1.00;;;;;;5036984;28;20444;-43
2023/03/11 07:16:24;;;;;;;6.00;2.30;;;2.00;1.00;;;;;;5038509;28;20432;-41
2023/03/11 07:18:54;;;;;;;2.63;1.83;;;2.10;1.00;;;;;;5036579;28;20201;-41
2023/03/11 07:21:21;;;;;;;4.57;2.13;;;2.20;1.00;;;;;;5035973;28;20548;-41
2023/03/11 07:23:50;;;;;;;6.33;1.83;;;2.40;99.90;;;;;;5035718;28;20413;-42
2023/03/11 07:26:16;;;;;;;4.47;1.63;;;2.60;99.90;;;;;;5036590;28;20782;-40
2023/03/11 07:28:43;;;;;;;2.63;1.30;;;2.70;99.90;;;;;;5035486;28;20726;-41
2023/03/11 07:31:11;;;;;;;5.50;2.23;;;2.70;99.90;;;;;;5036383;28;20511;-43
2023/03/11 07:33:37;;;;;;;3.27;1.50;;;2.80;99.90;;;;;;5035192;28;20409;-41
2023/03/11 07:36:10;;;;;;;3.80;1.50;;;2.90;99.90;;;;;;5036423;28;20487;-42
2023/03/11 07:38:36;;;;;;;4.90;1.83;;;3.10;89.50;;;;;;5037829;28;20704;-43
2023/03/11 07:41:02;;;;;;;6.53;2.40;;;2.70;68.50;;;;;;5069881;28;20478;-41
2023/03/11 07:43:27;;;;;;;6.23;1.93;;;3.00;70.70;;;;;;5038128;28;20189;-41
2023/03/11 07:46:11;;;;;;;7.37;1.80;;;2.80;89.40;;;;;;5036942;28;20237;-42
2023/03/11 07:48:38;;;;;;;5.53;1.70;;;3.10;52.00;;;;;;5037396;28;20489;-42
2023/03/11 07:51:13;;;;;;;3.60;1.67;;;2.80;34.20;;;;;;5034611;28;20842;-42
2023/03/11 07:53:39;;;;;;;7.93;2.20;;;3.00;61.00;;;;;;5035331;28;20903;-40
2023/03/11 07:56:06;;;;;;;3.60;1.50;;;3.30;24.60;;;;;;5035541;28;20721;-41
2023/03/11 07:58:32;;;;;;;2.73;1.90;;;3.70;1.00;;;;;;5036191;28;20537;-41
2023/03/11 08:01:03;;;;;;;5.23;2.00;;;3.80;1.00;;;;;;5036498;28;20448;-41
2023/03/11 08:03:28;;;;;;;3.80;1.60;;;3.70;1.00;;;;;;5037989;28;20205;-41
2023/03/11 08:05:54;;;;;;;4.13;1.97;;;3.40;1.00;;;;;;5036341;28;21102;-42
2023/03/11 08:08:20;;;;;;;5.67;1.50;;;3.60;1.00;;;;;;5036792;28;20186;-42
2023/03/11 08:10:45;;;;;;;7.07;2.30;;;3.90;1.00;;;;;;5034030;28;20241;-41
2023/03/11 08:13:11;;;;;;;4.53;1.50;;;4.10;1.00;;;;;;5034593;28;20210;-40
2023/03/11 08:15:36;;;;;;;2.97;1.33;;;4.00;1.00;;;;;;5036243;28;20266;-43
2023/03/11 08:18:03;;;;;;;5.90;2.00;;;4.50;1.00;;;;;;5037115;28;20567;-40
2023/03/11 08:20:28;;;;;;;3.53;1.43;;;4.90;1.00;;;;;;5034086;28;20166;-42
2023/03/11 08:22:54;;;;;;;3.20;1.53;;;5.50;1.00;;;;;;5035109;28;20836;-41
2023/03/11 08:25:20;;;;;;;2.80;1.30;;;5.90;1.00;;;;;;5037096;28;20167;-41
2023/03/11 08:27:45;;;;;;;4.60;1.67;;;6.40;1.00;;;;;;5037724;28;20272;-42
2023/03/11 08:30:12;;;;;;;3.73;1.93;;;6.50;1.00;;;;;;5037142;28;20219;-42
2023/03/11 08:32:37;;;;;;;4.30;1.80;;;6.80;1.00;;;;;;5037461;28;20182;-41
2023/03/11 08:35:03;;;;;;;5.57;1.93;;;7.20;1.00;;;;;;5038208;28;20412;-41
2023/03/11 08:37:30;;;;;;;5.00;1.33;;;7.40;1.00;;;;;;5035657;28;20263;-41
2023/03/11 08:39:56;;;;;;;4.90;1.70;;;7.20;1.00;;;;;;5037241;28;20413;-41
2023/03/11 08:42:21;;;;;;;4.57;1.17;;;7.20;1.00;;;;;;5035426;28;20506;-41
2023/03/11 08:44:47;;;;;;;4.10;1.80;;;7.30;1.00;;;;;;5035975;28;20265;-43
2023/03/11 08:47:13;;;;;;;5.60;1.73;;;7.60;1.00;;;;;;5034809;28;20205;-45
2023/03/11 08:49:39;;;;;;;3.13;1.43;;;7.80;1.00;;;;;;5033711;28;20714;-42
2023/03/11 08:52:05;;;;;;;3.10;1.20;;;8.30;1.00;;;;;;5033151;28;20847;-41
2023/03/11 08:54:31;;;;;;;5.47;1.87;;;8.30;1.00;;;;;;5033205;28;20175;-42
2023/03/11 08:57:01;;;;;;;2.37;1.30;;;7.90;1.00;;;;;;5032226;28;20444;-43
2023/03/11 08:59:28;;;;;;;4.00;1.17;;;7.90;1.00;;;;;;5034191;28;20508;-43
2023/03/11 09:01:54;;;;;;;5.10;1.40;;;8.00;1.00;;;;;;5034448;28;20800;-43
2023/03/11 09:04:20;;;;;;;3.73;1.37;;;8.10;1.00;;;;;;5034673;28;20898;-43
2023/03/11 09:06:47;;;;;;;3.43;1.20;;;7.80;1.00;;;;;;5033886;28;20571;-42
2023/03/11 09:09:15;;;;;;;2.50;1.20;;;7.90;1.00;;;;;;5033766;28;20512;-44
2023/03/11 09:11:41;;;;;;;4.47;1.43;;;7.60;1.00;;;;;;5034811;28;20425;-44
2023/03/11 09:14:06;;;;;;;3.17;1.83;;;7.90;1.00;;;;;;5034209;28;20429;-44
2023/03/11 09:16:32;;;;;;;4.60;2.50;;;8.50;1.00;;;;;;5034270;28;20257;-43
2023/03/11 09:19:02;;;;;;;2.03;1.20;;;8.50;1.00;;;;;;5035433;28;20219;-42
2023/03/11 09:21:28;;;;;;;2.70;1.20;;;8.70;1.00;;;;;;5034529;28;20232;-42
2023/03/11 09:23:53;;;;;;;2.40;0.63;;;9.20;1.00;;;;;;5034082;28;20449;-46
2023/03/11 09:26:19;;;;;;;3.53;0.90;;;10.10;99.90;;;;;;5033475;28;20214;-44
2023/03/11 09:28:47;;;;;;;7.23;1.37;;;11.10;99.90;;;;;;5034524;28;20174;-44
2023/03/11 09:31:14;;;;;;;3.23;1.67;;;12.00;99.90;;;;;;4988941;28;1286535;-42
2023/03/11 09:33:41;;;;;;;2.43;1.33;;;12.50;1.00;;;;;;5034612;28;20213;-43
2023/03/11 09:36:08;;;;;;;3.37;2.13;;;13.00;1.00;;;;;;5034036;28;20620;-43
2023/03/11 09:38:33;;;;;;;1.20;0.83;;;13.20;1.00;;;;;;5031248;28;20456;-44
2023/03/11 09:41:07;;;;;;;2.93;0.80;;;13.40;1.00;;;;;;5033496;28;20752;-42
2023/03/11 09:43:43;;;;;;;2.67;0.70;;;13.30;1.00;;;;;;5032176;28;20188;-42
2023/03/11 09:46:33;;;;;;;1.90;1.00;;;12.60;1.00;;;;;;5033929;28;20480;-44
2023/03/11 09:49:17;;;;;;;2.40;1.00;;;12.30;1.00;;;;;;5033644;28;20421;-44
2023/03/11 09:51:56;;;;;;;3.00;1.00;;;11.50;1.00;;;;;;5034032;28;20405;-42
2023/03/11 09:54:22;;;;;;;1.93;0.83;;;10.50;1.00;;;;;;5034684;28;20847;-42
2023/03/11 09:56:49;;;;;;;0.80;0.30;;;9.50;1.00;;;;;;5034377;28;20486;-42
2023/03/11 09:59:19;;;;;;;2.40;1.10;;;9.80;1.00;;;;;;5034991;28;20774;-42
2023/03/11 10:01:47;;;;;;;1.40;0.70;;;9.90;1.00;;;;;;5032268;28;20535;-41
2023/03/11 10:04:20;;;;;;;2.23;0.80;;;10.00;1.00;;;;;;5030474;28;20490;-43
2023/03/11 10:06:47;;;;;;;4.27;0.80;;;10.40;1.00;;;;;;5032204;28;20487;-43
2023/03/11 10:09:31;;;;;;;2.07;0.60;;;10.90;1.00;;;;;;5033029;28;20413;-44
2023/03/11 10:12:05;;;;;;;1.47;1.30;;;11.40;1.00;;;;;;5032181;28;20439;-43
2023/03/11 10:15:10;;;;;;;1.53;0.90;;;11.30;1.00;;;;;;5033109;28;20639;-42
2023/03/11 10:17:47;;;;;;;3.00;1.00;;;11.50;1.00;;;;;;4971090;28;20791;-45
2023/03/11 10:20:26;;;;;;;2.50;0.93;;;10.50;1.00;;;;;;4972145;28;20427;-42
2023/03/11 10:23:22;;;;;;;3.00;1.03;;;10.80;1.00;;;;;;5012254;28;20436;-43
2023/03/11 10:25:56;;;;;;;1.63;0.90;;;11.20;1.00;;;;;;5036664;28;20468;-43
2023/03/11 10:28:31;;;;;;;4.50;1.40;;;11.10;1.00;;;;;;5035415;28;20421;-43
2023/03/11 10:31:17;;;;;;;3.90;0.90;;;10.20;1.00;;;;;;5048063;28;20557;-41
2023/03/11 10:34:04;;;;;;;2.67;0.83;;;9.60;1.00;;;;;;5034040;28;20426;-43
2023/03/11 10:37:00;;;;;;;3.67;1.33;;;8.90;1.00;;;;;;5036270;28;20436;-43
2023/03/11 10:39:27;;;;;;;69.23;25.70;;;8.70;1.00;;;;;;5033013;28;20429;-54
2023/03/11 10:42:01;;;;;;;2.03;1.63;;;10.30;99.90;;;;;;5034033;28;20547;-46
2023/03/11 10:44:34;;;;;;;1.77;0.90;;;11.50;1.00;;;;;;5032763;28;20834;-46
2023/03/11 10:47:00;;;;;;;1.80;0.70;;;13.30;1.00;;;;;;5032377;28;20502;-44
2023/03/11 10:49:26;;;;;;;3.20;1.00;;;16.00;1.00;;;;;;5032942;28;20729;-45
2023/03/11 10:51:54;;;;;;;4.03;0.70;;;16.50;1.00;;;;;;5030203;28;20428;-44
2023/03/11 10:54:30;;;;;;;1.43;0.80;;;17.70;1.00;;;;;;5064570;28;20507;-45
2023/03/11 10:57:21;;;;;;;2.70;1.00;;;18.70;1.00;;;;;;5062419;28;20519;-46
2023/03/11 10:59:49;;;;;;;2.43;0.80;;;20.30;1.00;;;;;;5026292;28;20434;-44
2023/03/11 11:02:24;;;;;;;1.57;0.77;;;22.10;1.00;;;;;;5010878;28;20440;-45
2023/03/11 11:05:06;;;;;;;2.03;0.87;;;24.00;1.00;;;;;;5011309;28;20410;-45
2023/03/11 11:07:39;;;;;;;1.77;0.80;;;22.00;1.00;;;;;;5014634;28;20473;-45
2023/03/11 11:10:17;;;;;;;3.33;1.60;;;22.70;1.00;;;;;;5017144;28;20472;-46
2023/03/11 11:12:55;;;;;;;1.63;0.90;;;23.60;1.00;;;;;;5016458;28;20737;-44
2023/03/11 11:15:33;;;;;;;3.20;1.10;;;24.10;1.00;;;;;;5015868;28;20573;-44
2023/03/11 11:18:18;;;;;;;3.43;1.00;;;24.10;1.00;;;;;;5016987;28;20421;-45
2023/03/11 11:21:07;;;;;;;1.60;0.80;;;22.20;1.00;;;;;;5018319;28;20724;-46
2023/03/11 11:23:33;;;;;;;3.13;1.10;;;22.80;1.00;;;;;;5016800;28;20428;-45
2023/03/11 11:26:02;;;;;;;2.53;1.23;;;23.80;1.00;;;;;;5016470;28;20469;-44
2023/03/11 11:28:28;;;;;;;3.77;1.20;;;25.10;1.00;;;;;;5012688;28;20485;-47
2023/03/11 11:30:56;;;;;;;1.57;1.10;;;26.20;1.00;;;;;;5013602;28;20485;-49
2023/03/11 11:33:28;;;;;;;2.57;1.30;;;26.30;1.00;;;;;;5015656;28;20758;-47
2023/03/11 11:35:57;;;;;;;2.60;1.27;;;24.10;1.00;;;;;;5016668;28;20430;-46
2023/03/11 11:38:24;;;;;;;2.60;1.10;;;22.90;1.00;;;;;;5015861;28;20430;-47
2023/03/11 11:40:51;;;;;;;2.70;0.97;;;22.40;1.00;;;;;;5015825;28;20528;-45
2023/03/11 11:43:19;;;;;;;4.80;1.27;;;20.60;1.00;;;;;;5016439;28;20430;-46
2023/03/11 11:45:48;;;;;;;2.97;1.60;;;20.80;1.00;;;;;;5015871;28;20434;-46
2023/03/11 11:48:24;;;;;;;1.47;0.70;;;21.90;1.00;;;;;;4999184;28;20510;-46
2023/03/11 11:51:15;;;;;;;3.43;1.13;;;22.10;1.00;;;;;;5015111;28;20580;-45
2023/03/11 11:53:43;;;;;;;3.33;1.37;;;24.20;1.00;;;;;;5012865;28;20418;-47
2023/03/11 11:56:09;;;;;;;1.67;0.80;;;25.30;1.00;;;;;;4997825;28;20458;-49
2023/03/11 11:58:34;;;;;;;3.20;1.40;;;26.30;1.00;;;;;;5014291;28;20426;-47
2023/03/11 12:01:13;;;;;;;2.23;1.00;;;27.50;1.00;;;;;;5014329;28;20242;-45
2023/03/11 12:03:55;;;;;;;2.80;1.00;;;26.80;1.00;;;;;;5014591;28;20542;-49
2023/03/11 12:06:32;;;;;;;3.30;1.10;;;27.20;1.00;;;;;;5013302;28;20484;-44
2023/03/11 12:09:13;;;;;;;1.97;1.27;;;26.80;1.00;;;;;;5012834;28;20766;-47
2023/03/11 12:12:20;;;;;;;2.00;1.40;;;26.80;1.00;;;;;;5014336;28;20524;-45
2023/03/11 12:15:01;;;;;;;2.73;1.20;;;25.10;1.00;;;;;;5015239;28;20495;-47
2023/03/11 12:17:29;;;;;;;2.03;1.13;;;24.10;1.00;;;;;;5014705;28;20437;-48
2023/03/11 12:20:27;;;;;;;2.67;1.33;;;21.90;1.00;;;;;;5015819;28;20399;-46
2023/03/11 12:23:10;;;;;;;2.30;1.00;;;23.10;1.00;;;;;;5014355;28;20834;-46
2023/03/11 12:25:54;;;;;;;2.43;1.30;;;24.00;1.00;;;;;;5013122;28;20487;-46
2023/03/11 12:28:32;;;;;;;3.23;1.67;;;23.80;1.00;;;;;;5013012;28;20446;-45
2023/03/11 12:31:04;;;;;;;1.90;1.23;;;22.10;1.00;;;;;;5013421;28;20764;-47
2023/03/11 12:33:41;;;;;;;1.70;1.17;;;21.00;1.00;;;;;;5014093;28;20421;-45
2023/03/11 12:36:24;;;;;;;3.27;1.40;;;19.90;1.00;;;;;;5013592;28;20463;-44
2023/03/11 12:38:50;;;;;;;3.80;1.30;;;17.80;99.90;;;;;;5011791;28;20414;-45
2023/03/11 12:41:25;;;;;;;2.40;1.00;;;16.40;99.90;;;;;;5012649;28;20724;-48
2023/03/11 12:43:50;;;;;;;3.50;1.60;;;15.20;99.90;;;;;;5011097;28;20424;-45
2023/03/11 12:46:16;;;;;;;2.70;1.20;;;14.50;99.90;;;;;;5010476;28;20868;-47
2023/03/11 12:48:53;;;;;;;3.20;1.33;;;14.40;99.90;;;;;;4994892;28;20557;-49
2023/03/11 12:51:33;;;;;;;2.43;1.20;;;14.50;99.90;;;;;;5010693;28;20529;-47
2023/03/11 12:54:20;;;;;;;2.83;1.00;;;14.00;99.90;;;;;;5012218;28;20406;-46
2023/03/11 12:56:54;;;;;;;2.37;0.90;;;14.40;99.90;;;;;;5011616;28;20496;-46
2023/03/11 12:59:48;;;;;;;4.07;1.33;;;14.80;99.90;;;;;;5011475;28;20426;-45
2023/03/11 13:02:32;;;;;;;2.20;0.93;;;15.30;99.90;;;;;;5013194;28;20434;-45
2023/03/11 13:05:06;;;;;;;2.77;1.70;;;15.70;99.90;;;;;;5015215;28;20414;-47
2023/03/11 13:07:48;;;;;;;2.40;1.17;;;16.00;99.90;;;;;;5015502;28;20635;-46
2023/03/11 13:10:23;;;;;;;1.80;1.00;;;15.70;99.90;;;;;;5013834;28;20780;-44